sensor_id;sensor_type;location;lat;lon;timestamp;temperature;humidity
63435;DHT22;68814;50.872;5.306;2023-10-19T00:01:55;15.00;99.90
63435;DHT22;68814;50.872;5.306;2023-10-19T00:04:22;15.00;99.90
63435;DHT22;68814;50.872;5.306;2023-10-19T00:06:48;15.00;99.90
63435;DHT22;68814;50.872;5.306;2023-10-19T00:09:15;15.10;99.90
63435;DHT22;68814;50.872;5.306;2023-10-19T00:11:41;15.10;99.90
63435;DHT22;68814;50.872;5.306;2023-10-19T00:14:07;15.20;99.90
63435;DHT22;68814;50.872;5.306;2023-10-19T00:16:53;15.20;99.90
63435;DHT22;68814;50.872;5.306;2023-10-19T00:19:25;15.20;99.90
63435;DHT22;68814;50.872;5.306;2023-10-19T00:21:53;15.20;99.90
63435;DHT22;68814;50.872;5.306;2023-10-19T00:24:34;15.20;99.90
63435;DHT22;68814;50.872;5.306;2023-10-19T00:27:00;15.30;99.90
63435;DHT22;68814;50.872;5.306;2023-10-19T00:29:31;15.40;99.90
63435;DHT22;68814;50.872;5.306;2023-10-19T00:31:59;15.40;99.90
63435;DHT22;68814;50.872;5.306;2023-10-19T00:34:26;15.40;99.90
63435;DHT22;68814;50.872;5.306;2023-10-19T00:36:54;15.50;99.90
63435;DHT22;68814;50.872;5.306;2023-10-19T00:39:21;15.60;99.90
63435;DHT22;68814;50.872;5.306;2023-10-19T00:41:48;15.70;99.90
63435;DHT22;68814;50.872;5.306;2023-10-19T00:44:14;15.70;99.90
63435;DHT22;68814;50.872;5.306;2023-10-19T00:47:01;15.80;99.90
63435;DHT22;68814;50.872;5.306;2023-10-19T00:49:33;15.90;99.90
63435;DHT22;68814;50.872;5.306;2023-10-19T00:52:00;15.90;99.90
63435;DHT22;68814;50.872;5.306;2023-10-19T00:54:38;15.90;99.90
63435;DHT22;68814;50.872;5.306;2023-10-19T00:57:27;16.00;99.90
63435;DHT22;68814;50.872;5.306;2023-10-19T01:00:01;16.00;99.90
63435;DHT22;68814;50.872;5.306;2023-10-19T01:02:46;16.00;99.90
63435;DHT22;68814;50.872;5.306;2023-10-19T01:05:12;16.10;99.90
63435;DHT22;68814;50.872;5.306;2023-10-19T01:07:47;16.10;99.90
63435;DHT22;68814;50.872;5.306;2023-10-19T01:10:18;16.10;99.90
63435;DHT22;68814;50.872;5.306;2023-10-19T01:12:48;16.10;99.90
63435;DHT22;68814;50.872;5.306;2023-10-19T01:15:21;16.20;99.90
63435;DHT22;68814;50.872;5.306;2023-10-19T01:17:56;16.20;99.90
63435;DHT22;68814;50.872;5.306;2023-10-19T01:20:24;16.20;99.90
63435;DHT22;68814;50.872;5.306;2023-10-19T01:23:06;16.20;99.90
63435;DHT22;68814;50.872;5.306;2023-10-19T01:28:10;16.10;99.90
63435;DHT22;68814;50.872;5.306;2023-10-19T01:30:39;16.10;99.90
63435;DHT22;68814;50.872;5.306;2023-10-19T01:33:05;16.10;99.90
63435;DHT22;68814;50.872;5.306;2023-10-19T01:35:41;16.10;99.90
63435;DHT22;68814;50.872;5.306;2023-10-19T01:38:27;16.10;99.90
63435;DHT22;68814;50.872;5.306;2023-10-19T01:40:59;16.10;99.90
63435;DHT22;68814;50.872;5.306;2023-10-19T01:43:26;16.10;99.90
63435;DHT22;68814;50.872;5.306;2023-10-19T01:45:56;16.10;99.90
63435;DHT22;68814;50.872;5.306;2023-10-19T01:48:22;16.10;99.90
63435;DHT22;68814;50.872;5.306;2023-10-19T01:51:03;16.10;99.90
63435;DHT22;68814;50.872;5.306;2023-10-19T01:53:32;16.00;99.90
63435;DHT22;68814;50.872;5.306;2023-10-19T01:55:58;16.10;99.90
63435;DHT22;68814;50.872;5.306;2023-10-19T01:58:25;16.00;99.90
63435;DHT22;68814;50.872;5.306;2023-10-19T02:00:54;16.00;99.90
63435;DHT22;68814;50.872;5.306;2023-10-19T02:03:22;16.00;99.90
63435;DHT22;68814;50.872;5.306;2023-10-19T02:06:00;16.00;99.90
63435;DHT22;68814;50.872;5.306;2023-10-19T02:08:32;16.00;99.90
63435;DHT22;68814;50.872;5.306;2023-10-19T02:10:57;16.00;99.90
63435;DHT22;68814;50.872;5.306;2023-10-19T02:13:27;16.00;99.90
63435;DHT22;68814;50.872;5.306;2023-10-19T02:15:53;16.00;99.90
63435;DHT22;68814;50.872;5.306;2023-10-19T02:18:19;16.00;99.90
63435;DHT22;68814;50.872;5.306;2023-10-19T02:20:44;16.00;99.90
63435;DHT22;68814;50.872;5.306;2023-10-19T02:23:13;16.00;99.90
63435;DHT22;68814;50.872;5.306;2023-10-19T02:25:43;16.00;99.90
63435;DHT22;68814;50.872;5.306;2023-10-19T02:28:08;16.00;99.90
63435;DHT22;68814;50.872;5.306;2023-10-19T02:30:35;15.90;99.90
63435;DHT22;68814;50.872;5.306;2023-10-19T02:33:01;15.90;99.90
63435;DHT22;68814;50.872;5.306;2023-10-19T02:35:28;15.90;99.90
63435;DHT22;68814;50.872;5.306;2023-10-19T02:37:54;15.90;99.90
63435;DHT22;68814;50.872;5.306;2023-10-19T02:40:20;15.90;99.90
63435;DHT22;68814;50.872;5.306;2023-10-19T02:42:48;15.80;99.90
63435;DHT22;68814;50.872;5.306;2023-10-19T02:45:16;15.80;99.90
63435;DHT22;68814;50.872;5.306;2023-10-19T02:47:43;15.80;99.90
63435;DHT22;68814;50.872;5.306;2023-10-19T02:50:09;15.80;99.90
63435;DHT22;68814;50.872;5.306;2023-10-19T02:52:48;15.80;99.90
63435;DHT22;68814;50.872;5.306;2023-10-19T02:55:14;15.70;99.90
63435;DHT22;68814;50.872;5.306;2023-10-19T02:57:43;15.70;99.90
63435;DHT22;68814;50.872;5.306;2023-10-19T03:00:12;15.70;99.90
63435;DHT22;68814;50.872;5.306;2023-10-19T03:02:45;15.70;99.90
63435;DHT22;68814;50.872;5.306;2023-10-19T03:05:11;15.70;99.90
63435;DHT22;68814;50.872;5.306;2023-10-19T03:07:43;15.70;99.90
63435;DHT22;68814;50.872;5.306;2023-10-19T03:10:12;15.70;99.90
63435;DHT22;68814;50.872;5.306;2023-10-19T03:12:50;15.70;99.90
63435;DHT22;68814;50.872;5.306;2023-10-19T03:15:16;15.70;99.90
63435;DHT22;68814;50.872;5.306;2023-10-19T03:17:44;15.60;99.90
63435;DHT22;68814;50.872;5.306;2023-10-19T03:20:10;15.60;99.90
63435;DHT22;68814;50.872;5.306;2023-10-19T03:22:37;15.50;99.90
63435;DHT22;68814;50.872;5.306;2023-10-19T03:25:06;15.50;99.90
63435;DHT22;68814;50.872;5.306;2023-10-19T03:27:50;15.40;99.90
63435;DHT22;68814;50.872;5.306;2023-10-19T03:30:16;15.40;99.90
63435;DHT22;68814;50.872;5.306;2023-10-19T03:32:44;15.30;99.90
63435;DHT22;68814;50.872;5.306;2023-10-19T03:35:09;15.30;99.90
63435;DHT22;68814;50.872;5.306;2023-10-19T03:37:40;15.20;99.90
63435;DHT22;68814;50.872;5.306;2023-10-19T03:40:08;15.20;99.90
63435;DHT22;68814;50.872;5.306;2023-10-19T03:42:40;15.10;99.90
63435;DHT22;68814;50.872;5.306;2023-10-19T03:45:09;15.00;99.90
63435;DHT22;68814;50.872;5.306;2023-10-19T03:47:39;15.00;99.90
63435;DHT22;68814;50.872;5.306;2023-10-19T03:50:08;15.00;99.90
63435;DHT22;68814;50.872;5.306;2023-10-19T03:52:39;14.90;99.90
63435;DHT22;68814;50.872;5.306;2023-10-19T03:55:08;14.90;99.90
63435;DHT22;68814;50.872;5.306;2023-10-19T03:57:37;14.90;99.90
63435;DHT22;68814;50.872;5.306;2023-10-19T04:00:07;14.90;99.90
63435;DHT22;68814;50.872;5.306;2023-10-19T04:02:39;14.90;99.90
63435;DHT22;68814;50.872;5.306;2023-10-19T04:05:08;14.90;99.90
63435;DHT22;68814;50.872;5.306;2023-10-19T04:07:35;14.90;99.90
63435;DHT22;68814;50.872;5.306;2023-10-19T04:10:01;14.90;99.90
63435;DHT22;68814;50.872;5.306;2023-10-19T04:12:34;14.90;99.90
63435;DHT22;68814;50.872;5.306;2023-10-19T04:15:06;14.90;99.90
63435;DHT22;68814;50.872;5.306;2023-10-19T04:17:51;14.90;99.90
63435;DHT22;68814;50.872;5.306;2023-10-19T04:20:19;14.90;99.90
63435;DHT22;68814;50.872;5.306;2023-10-19T04:22:49;14.80;99.90
63435;DHT22;68814;50.872;5.306;2023-10-19T04:25:16;14.80;99.90
63435;DHT22;68814;50.872;5.306;2023-10-19T04:27:45;14.90;99.90
63435;DHT22;68814;50.872;5.306;2023-10-19T04:30:12;14.90;99.90
63435;DHT22;68814;50.872;5.306;2023-10-19T04:32:48;14.80;99.90
63435;DHT22;68814;50.872;5.306;2023-10-19T04:35:18;14.80;99.90
63435;DHT22;68814;50.872;5.306;2023-10-19T04:37:48;14.80;99.90
63435;DHT22;68814;50.872;5.306;2023-10-19T04:40:18;14.80;99.90
63435;DHT22;68814;50.872;5.306;2023-10-19T04:42:45;14.80;99.90
63435;DHT22;68814;50.872;5.306;2023-10-19T04:45:12;14.80;99.90
63435;DHT22;68814;50.872;5.306;2023-10-19T04:47:38;14.80;99.90
63435;DHT22;68814;50.872;5.306;2023-10-19T04:50:08;14.80;99.90
63435;DHT22;68814;50.872;5.306;2023-10-19T04:52:36;14.90;99.90
63435;DHT22;68814;50.872;5.306;2023-10-19T04:55:02;14.80;99.90
63435;DHT22;68814;50.872;5.306;2023-10-19T04:57:28;14.90;99.90
63435;DHT22;68814;50.872;5.306;2023-10-19T04:59:53;14.90;99.90
63435;DHT22;68814;50.872;5.306;2023-10-19T05:02:19;14.90;99.90
63435;DHT22;68814;50.872;5.306;2023-10-19T05:04:45;15.00;99.90
63435;DHT22;68814;50.872;5.306;2023-10-19T05:07:11;15.00;99.90
63435;DHT22;68814;50.872;5.306;2023-10-19T05:09:42;15.00;99.90
63435;DHT22;68814;50.872;5.306;2023-10-19T05:12:09;15.00;99.90
63435;DHT22;68814;50.872;5.306;2023-10-19T05:14:36;15.00;99.90
63435;DHT22;68814;50.872;5.306;2023-10-19T05:17:02;15.00;99.90
63435;DHT22;68814;50.872;5.306;2023-10-19T05:19:35;15.10;99.90
63435;DHT22;68814;50.872;5.306;2023-10-19T05:22:01;15.10;99.90
63435;DHT22;68814;50.872;5.306;2023-10-19T05:24:28;15.10;99.90
63435;DHT22;68814;50.872;5.306;2023-10-19T05:26:54;15.10;99.90
63435;DHT22;68814;50.872;5.306;2023-10-19T05:29:38;15.10;99.90
63435;DHT22;68814;50.872;5.306;2023-10-19T05:32:05;15.10;99.90
63435;DHT22;68814;50.872;5.306;2023-10-19T05:34:31;15.10;99.90
63435;DHT22;68814;50.872;5.306;2023-10-19T05:37:00;15.10;99.90
63435;DHT22;68814;50.872;5.306;2023-10-19T05:39:28;15.10;99.90
63435;DHT22;68814;50.872;5.306;2023-10-19T05:41:57;15.10;99.90
63435;DHT22;68814;50.872;5.306;2023-10-19T05:44:27;15.10;99.90
63435;DHT22;68814;50.872;5.306;2023-10-19T05:46:53;15.10;99.90
63435;DHT22;68814;50.872;5.306;2023-10-19T05:49:20;15.10;99.90
63435;DHT22;68814;50.872;5.306;2023-10-19T05:51:45;15.10;99.90
63435;DHT22;68814;50.872;5.306;2023-10-19T05:54:12;15.10;99.90
63435;DHT22;68814;50.872;5.306;2023-10-19T05:56:37;15.10;99.90
63435;DHT22;68814;50.872;5.306;2023-10-19T05:59:03;15.10;99.90
63435;DHT22;68814;50.872;5.306;2023-10-19T06:01:30;15.10;99.90
63435;DHT22;68814;50.872;5.306;2023-10-19T06:03:55;15.10;99.90
63435;DHT22;68814;50.872;5.306;2023-10-19T06:06:22;15.20;99.90
63435;DHT22;68814;50.872;5.306;2023-10-19T06:08:48;15.20;99.90
63435;DHT22;68814;50.872;5.306;2023-10-19T06:11:15;15.10;99.90
63435;DHT22;68814;50.872;5.306;2023-10-19T06:13:40;15.20;99.90
63435;DHT22;68814;50.872;5.306;2023-10-19T06:16:06;15.20;99.90
63435;DHT22;68814;50.872;5.306;2023-10-19T06:18:32;15.20;99.90
63435;DHT22;68814;50.872;5.306;2023-10-19T06:20:57;15.20;99.90
63435;DHT22;68814;50.872;5.306;2023-10-19T06:23:23;15.20;99.90
63435;DHT22;68814;50.872;5.306;2023-10-19T06:25:49;15.20;99.90
63435;DHT22;68814;50.872;5.306;2023-10-19T06:28:17;15.20;99.90
63435;DHT22;68814;50.872;5.306;2023-10-19T06:30:43;15.20;99.90
63435;DHT22;68814;50.872;5.306;2023-10-19T06:33:09;15.30;99.90
63435;DHT22;68814;50.872;5.306;2023-10-19T06:35:34;15.30;99.90
63435;DHT22;68814;50.872;5.306;2023-10-19T06:38:03;15.30;99.90
63435;DHT22;68814;50.872;5.306;2023-10-19T06:40:29;15.20;99.90
63435;DHT22;68814;50.872;5.306;2023-10-19T06:42:59;15.30;99.90
63435;DHT22;68814;50.872;5.306;2023-10-19T06:45:28;15.30;99.90
63435;DHT22;68814;50.872;5.306;2023-10-19T06:47:57;15.30;99.90
63435;DHT22;68814;50.872;5.306;2023-10-19T06:50:28;15.20;99.90
63435;DHT22;68814;50.872;5.306;2023-10-19T06:52:53;15.20;99.90
63435;DHT22;68814;50.872;5.306;2023-10-19T06:55:22;15.20;99.90
63435;DHT22;68814;50.872;5.306;2023-10-19T06:57:52;15.20;99.90
63435;DHT22;68814;50.872;5.306;2023-10-19T07:00:19;15.30;99.90
63435;DHT22;68814;50.872;5.306;2023-10-19T07:02:56;15.30;99.90
63435;DHT22;68814;50.872;5.306;2023-10-19T07:05:22;15.30;99.90
63435;DHT22;68814;50.872;5.306;2023-10-19T07:07:52;15.30;99.90
63435;DHT22;68814;50.872;5.306;2023-10-19T07:10:20;15.30;99.90
63435;DHT22;68814;50.872;5.306;2023-10-19T07:12:47;15.30;99.90
63435;DHT22;68814;50.872;5.306;2023-10-19T07:15:14;15.40;99.90
63435;DHT22;68814;50.872;5.306;2023-10-19T07:17:41;15.40;99.90
63435;DHT22;68814;50.872;5.306;2023-10-19T07:20:09;15.40;99.90
63435;DHT22;68814;50.872;5.306;2023-10-19T07:22:47;15.50;99.90
63435;DHT22;68814;50.872;5.306;2023-10-19T07:25:13;15.50;99.90
63435;DHT22;68814;50.872;5.306;2023-10-19T07:27:39;15.50;99.90
63435;DHT22;68814;50.872;5.306;2023-10-19T07:30:08;15.50;99.90
63435;DHT22;68814;50.872;5.306;2023-10-19T07:32:35;15.50;99.90
63435;DHT22;68814;50.872;5.306;2023-10-19T07:35:01;15.50;99.90
63435;DHT22;68814;50.872;5.306;2023-10-19T07:37:28;15.50;99.90
63435;DHT22;68814;50.872;5.306;2023-10-19T07:39:54;15.50;99.90
63435;DHT22;68814;50.872;5.306;2023-10-19T07:42:23;15.50;99.90
63435;DHT22;68814;50.872;5.306;2023-10-19T07:44:52;15.50;99.90
63435;DHT22;68814;50.872;5.306;2023-10-19T07:47:17;15.60;99.90
63435;DHT22;68814;50.872;5.306;2023-10-19T07:49:43;15.60;99.90
63435;DHT22;68814;50.872;5.306;2023-10-19T07:52:09;15.60;99.90
63435;DHT22;68814;50.872;5.306;2023-10-19T07:54:41;15.70;99.90
63435;DHT22;68814;50.872;5.306;2023-10-19T07:57:07;15.70;99.90
63435;DHT22;68814;50.872;5.306;2023-10-19T07:59:33;15.80;99.90
63435;DHT22;68814;50.872;5.306;2023-10-19T08:02:02;15.80;99.90
63435;DHT22;68814;50.872;5.306;2023-10-19T08:04:36;15.80;99.90
63435;DHT22;68814;50.872;5.306;2023-10-19T08:07:05;15.90;99.90
63435;DHT22;68814;50.872;5.306;2023-10-19T08:09:30;15.90;99.90
63435;DHT22;68814;50.872;5.306;2023-10-19T08:12:00;16.00;99.90
63435;DHT22;68814;50.872;5.306;2023-10-19T08:14:27;16.10;99.90
63435;DHT22;68814;50.872;5.306;2023-10-19T08:16:53;16.20;99.90
63435;DHT22;68814;50.872;5.306;2023-10-19T08:19:19;16.20;99.90
63435;DHT22;68814;50.872;5.306;2023-10-19T08:21:45;16.30;99.90
63435;DHT22;68814;50.872;5.306;2023-10-19T08:24:11;16.40;99.90
63435;DHT22;68814;50.872;5.306;2023-10-19T08:26:43;16.40;99.90
63435;DHT22;68814;50.872;5.306;2023-10-19T08:29:11;16.40;99.90
63435;DHT22;68814;50.872;5.306;2023-10-19T08:31:43;16.50;99.90
63435;DHT22;68814;50.872;5.306;2023-10-19T08:34:12;16.50;99.90
63435;DHT22;68814;50.872;5.306;2023-10-19T08:36:38;16.60;99.90
63435;DHT22;68814;50.872;5.306;2023-10-19T08:39:08;16.60;99.90
63435;DHT22;68814;50.872;5.306;2023-10-19T08:41:35;16.60;99.90
63435;DHT22;68814;50.872;5.306;2023-10-19T08:44:08;16.70;99.90
63435;DHT22;68814;50.872;5.306;2023-10-19T08:46:44;16.80;99.90
63435;DHT22;68814;50.872;5.306;2023-10-19T08:49:11;16.90;99.90
63435;DHT22;68814;50.872;5.306;2023-10-19T08:51:46;16.90;99.90
63435;DHT22;68814;50.872;5.306;2023-10-19T08:54:13;17.00;99.90
63435;DHT22;68814;50.872;5.306;2023-10-19T08:56:41;17.00;99.90
63435;DHT22;68814;50.872;5.306;2023-10-19T08:59:08;17.20;99.90
63435;DHT22;68814;50.872;5.306;2023-10-19T09:01:33;17.20;99.90
63435;DHT22;68814;50.872;5.306;2023-10-19T09:04:01;17.30;99.90
63435;DHT22;68814;50.872;5.306;2023-10-19T09:06:27;17.30;99.90
63435;DHT22;68814;50.872;5.306;2023-10-19T09:08:56;17.30;99.90
63435;DHT22;68814;50.872;5.306;2023-10-19T09:11:24;17.40;99.90
63435;DHT22;68814;50.872;5.306;2023-10-19T09:13:51;17.40;99.90
63435;DHT22;68814;50.872;5.306;2023-10-19T09:16:21;17.40;99.90
63435;DHT22;68814;50.872;5.306;2023-10-19T09:18:48;17.50;99.90
63435;DHT22;68814;50.872;5.306;2023-10-19T09:21:21;17.50;99.90
63435;DHT22;68814;50.872;5.306;2023-10-19T09:23:54;17.60;99.90
63435;DHT22;68814;50.872;5.306;2023-10-19T09:26:23;17.60;99.90
63435;DHT22;68814;50.872;5.306;2023-10-19T09:28:51;17.70;99.90
63435;DHT22;68814;50.872;5.306;2023-10-19T09:31:17;17.70;99.90
63435;DHT22;68814;50.872;5.306;2023-10-19T09:33:45;17.70;99.90
63435;DHT22;68814;50.872;5.306;2023-10-19T09:36:12;17.70;99.90
63435;DHT22;68814;50.872;5.306;2023-10-19T09:38:49;17.70;99.90
63435;DHT22;68814;50.872;5.306;2023-10-19T09:41:20;17.80;99.90
63435;DHT22;68814;50.872;5.306;2023-10-19T09:43:50;17.80;99.90
63435;DHT22;68814;50.872;5.306;2023-10-19T09:46:26;17.80;99.90
63435;DHT22;68814;50.872;5.306;2023-10-19T09:48:54;17.80;99.90
63435;DHT22;68814;50.872;5.306;2023-10-19T09:51:20;17.90;99.90
63435;DHT22;68814;50.872;5.306;2023-10-19T09:54:11;17.90;99.90
63435;DHT22;68814;50.872;5.306;2023-10-19T09:56:42;18.00;99.90
63435;DHT22;68814;50.872;5.306;2023-10-19T09:59:34;18.00;99.90
63435;DHT22;68814;50.872;5.306;2023-10-19T10:02:09;18.10;99.90
63435;DHT22;68814;50.872;5.306;2023-10-19T10:04:39;18.20;99.90
63435;DHT22;68814;50.872;5.306;2023-10-19T10:07:10;18.20;99.90
63435;DHT22;68814;50.872;5.306;2023-10-19T10:09:40;18.20;99.90
63435;DHT22;68814;50.872;5.306;2023-10-19T10:12:25;18.30;99.90
63435;DHT22;68814;50.872;5.306;2023-10-19T10:15:04;18.40;99.90
63435;DHT22;68814;50.872;5.306;2023-10-19T10:17:39;18.40;99.90
63435;DHT22;68814;50.872;5.306;2023-10-19T10:22:40;18.50;99.90
63435;DHT22;68814;50.872;5.306;2023-10-19T10:25:27;18.50;99.90
63435;DHT22;68814;50.872;5.306;2023-10-19T10:27:54;18.50;99.90
63435;DHT22;68814;50.872;5.306;2023-10-19T10:30:20;18.50;99.90
63435;DHT22;68814;50.872;5.306;2023-10-19T10:32:50;18.60;99.90
63435;DHT22;68814;50.872;5.306;2023-10-19T10:38:06;18.70;99.90
63435;DHT22;68814;50.872;5.306;2023-10-19T10:40:46;18.80;99.90
63435;DHT22;68814;50.872;5.306;2023-10-19T10:43:18;19.00;99.90
63435;DHT22;68814;50.872;5.306;2023-10-19T10:45:44;19.10;99.90
63435;DHT22;68814;50.872;5.306;2023-10-19T10:48:17;19.20;99.90
63435;DHT22;68814;50.872;5.306;2023-10-19T10:50:44;19.40;99.90
63435;DHT22;68814;50.872;5.306;2023-10-19T10:53:13;19.50;99.90
63435;DHT22;68814;50.872;5.306;2023-10-19T10:55:39;19.60;99.90
63435;DHT22;68814;50.872;5.306;2023-10-19T10:58:05;19.60;99.90
63435;DHT22;68814;50.872;5.306;2023-10-19T11:00:31;19.60;99.90
63435;DHT22;68814;50.872;5.306;2023-10-19T11:03:04;19.70;99.90
63435;DHT22;68814;50.872;5.306;2023-10-19T11:05:30;19.70;99.90
63435;DHT22;68814;50.872;5.306;2023-10-19T11:10:32;19.80;99.90
63435;DHT22;68814;50.872;5.306;2023-10-19T11:13:06;19.90;99.90
63435;DHT22;68814;50.872;5.306;2023-10-19T11:15:36;20.00;99.90
63435;DHT22;68814;50.872;5.306;2023-10-19T11:18:03;20.10;99.90
63435;DHT22;68814;50.872;5.306;2023-10-19T11:20:31;20.20;99.90
63435;DHT22;68814;50.872;5.306;2023-10-19T11:22:57;20.30;99.90
63435;DHT22;68814;50.872;5.306;2023-10-19T11:25:30;20.40;99.90
63435;DHT22;68814;50.872;5.306;2023-10-19T11:28:01;20.50;99.90
63435;DHT22;68814;50.872;5.306;2023-10-19T11:30:32;20.50;99.90
63435;DHT22;68814;50.872;5.306;2023-10-19T11:32:59;20.40;99.90
63435;DHT22;68814;50.872;5.306;2023-10-19T11:35:34;20.30;99.90
63435;DHT22;68814;50.872;5.306;2023-10-19T11:38:00;20.30;99.90
63435;DHT22;68814;50.872;5.306;2023-10-19T11:40:28;20.10;99.90
63435;DHT22;68814;50.872;5.306;2023-10-19T11:42:54;20.00;99.90
63435;DHT22;68814;50.872;5.306;2023-10-19T11:45:24;19.90;99.90
63435;DHT22;68814;50.872;5.306;2023-10-19T11:47:50;19.70;99.90
63435;DHT22;68814;50.872;5.306;2023-10-19T11:50:16;19.60;99.90
63435;DHT22;68814;50.872;5.306;2023-10-19T11:52:44;19.40;99.90
63435;DHT22;68814;50.872;5.306;2023-10-19T11:55:14;19.30;99.90
63435;DHT22;68814;50.872;5.306;2023-10-19T11:57:41;19.10;99.90
63435;DHT22;68814;50.872;5.306;2023-10-19T12:00:12;19.00;99.90
63435;DHT22;68814;50.872;5.306;2023-10-19T12:02:47;18.90;99.90
63435;DHT22;68814;50.872;5.306;2023-10-19T12:05:13;18.70;99.90
63435;DHT22;68814;50.872;5.306;2023-10-19T12:07:39;18.70;99.90
63435;DHT22;68814;50.872;5.306;2023-10-19T12:10:09;18.60;99.90
63435;DHT22;68814;50.872;5.306;2023-10-19T12:12:38;18.60;99.90
63435;DHT22;68814;50.872;5.306;2023-10-19T12:15:06;18.60;99.90
63435;DHT22;68814;50.872;5.306;2023-10-19T12:17:32;18.60;99.90
63435;DHT22;68814;50.872;5.306;2023-10-19T12:20:01;18.60;99.90
63435;DHT22;68814;50.872;5.306;2023-10-19T12:22:29;18.60;99.90
63435;DHT22;68814;50.872;5.306;2023-10-19T12:24:58;18.60;99.90
63435;DHT22;68814;50.872;5.306;2023-10-19T12:27:24;18.60;99.90
63435;DHT22;68814;50.872;5.306;2023-10-19T12:29:51;18.60;99.90
63435;DHT22;68814;50.872;5.306;2023-10-19T12:32:18;18.60;99.90
63435;DHT22;68814;50.872;5.306;2023-10-19T12:34:44;18.70;99.90
63435;DHT22;68814;50.872;5.306;2023-10-19T12:37:10;18.70;99.90
63435;DHT22;68814;50.872;5.306;2023-10-19T12:39:38;18.70;99.90
63435;DHT22;68814;50.872;5.306;2023-10-19T12:42:13;18.70;99.90
63435;DHT22;68814;50.872;5.306;2023-10-19T12:44:39;18.60;99.90
63435;DHT22;68814;50.872;5.306;2023-10-19T12:47:07;18.50;99.90
63435;DHT22;68814;50.872;5.306;2023-10-19T12:49:39;18.40;99.90
63435;DHT22;68814;50.872;5.306;2023-10-19T12:52:06;18.30;99.90
63435;DHT22;68814;50.872;5.306;2023-10-19T12:54:36;18.20;99.90
63435;DHT22;68814;50.872;5.306;2023-10-19T12:57:02;18.30;99.90
63435;DHT22;68814;50.872;5.306;2023-10-19T12:59:34;18.20;99.90
63435;DHT22;68814;50.872;5.306;2023-10-19T13:02:03;18.20;99.90
63435;DHT22;68814;50.872;5.306;2023-10-19T13:04:29;18.20;99.90
63435;DHT22;68814;50.872;5.306;2023-10-19T13:06:56;18.20;99.90
63435;DHT22;68814;50.872;5.306;2023-10-19T13:09:27;18.20;99.90
63435;DHT22;68814;50.872;5.306;2023-10-19T13:12:01;18.20;99.90
63435;DHT22;68814;50.872;5.306;2023-10-19T13:14:27;18.30;99.90
63435;DHT22;68814;50.872;5.306;2023-10-19T13:16:53;18.30;99.90
63435;DHT22;68814;50.872;5.306;2023-10-19T13:19:20;18.30;99.90
63435;DHT22;68814;50.872;5.306;2023-10-19T13:21:49;18.40;99.90
63435;DHT22;68814;50.872;5.306;2023-10-19T13:24:16;18.40;99.90
63435;DHT22;68814;50.872;5.306;2023-10-19T13:26:43;18.40;99.90
63435;DHT22;68814;50.872;5.306;2023-10-19T13:29:12;18.40;99.90
63435;DHT22;68814;50.872;5.306;2023-10-19T13:31:38;18.50;99.90
63435;DHT22;68814;50.872;5.306;2023-10-19T13:34:03;18.50;99.90
63435;DHT22;68814;50.872;5.306;2023-10-19T13:36:36;18.60;99.90
63435;DHT22;68814;50.872;5.306;2023-10-19T13:39:02;18.60;99.90
63435;DHT22;68814;50.872;5.306;2023-10-19T13:41:28;18.70;99.90
63435;DHT22;68814;50.872;5.306;2023-10-19T13:43:54;18.90;99.90
63435;DHT22;68814;50.872;5.306;2023-10-19T13:46:21;19.10;99.90
63435;DHT22;68814;50.872;5.306;2023-10-19T13:48:49;19.50;99.90
63435;DHT22;68814;50.872;5.306;2023-10-19T13:51:18;19.80;99.90
63435;DHT22;68814;50.872;5.306;2023-10-19T13:53:45;20.20;99.90
63435;DHT22;68814;50.872;5.306;2023-10-19T13:56:13;20.80;99.90
63435;DHT22;68814;50.872;5.306;2023-10-19T13:58:40;21.40;99.90
63435;DHT22;68814;50.872;5.306;2023-10-19T14:01:09;22.10;99.90
63435;DHT22;68814;50.872;5.306;2023-10-19T14:03:36;22.90;99.90
63435;DHT22;68814;50.872;5.306;2023-10-19T14:06:03;23.70;99.90
63435;DHT22;68814;50.872;5.306;2023-10-19T14:08:29;24.40;99.90
63435;DHT22;68814;50.872;5.306;2023-10-19T14:11:05;25.00;99.20
63435;DHT22;68814;50.872;5.306;2023-10-19T14:13:32;25.40;96.90
63435;DHT22;68814;50.872;5.306;2023-10-19T14:15:57;25.60;95.90
63435;DHT22;68814;50.872;5.306;2023-10-19T14:18:23;25.60;95.00
63435;DHT22;68814;50.872;5.306;2023-10-19T14:20:49;25.40;95.00
63435;DHT22;68814;50.872;5.306;2023-10-19T14:23:14;25.30;95.50
63435;DHT22;68814;50.872;5.306;2023-10-19T14:25:40;25.10;96.00
63435;DHT22;68814;50.872;5.306;2023-10-19T14:28:07;24.90;96.40
63435;DHT22;68814;50.872;5.306;2023-10-19T14:30:33;24.60;96.40
63435;DHT22;68814;50.872;5.306;2023-10-19T14:32:59;24.40;97.00
63435;DHT22;68814;50.872;5.306;2023-10-19T14:35:25;24.20;97.60
63435;DHT22;68814;50.872;5.306;2023-10-19T14:37:53;24.00;98.00
63435;DHT22;68814;50.872;5.306;2023-10-19T14:40:25;24.00;99.90
63435;DHT22;68814;50.872;5.306;2023-10-19T14:42:53;24.00;99.10
63435;DHT22;68814;50.872;5.306;2023-10-19T14:45:21;24.20;99.30
63435;DHT22;68814;50.872;5.306;2023-10-19T14:47:52;24.50;98.00
63435;DHT22;68814;50.872;5.306;2023-10-19T14:50:18;24.80;96.70
63435;DHT22;68814;50.872;5.306;2023-10-19T14:52:47;24.80;94.70
63435;DHT22;68814;50.872;5.306;2023-10-19T14:55:13;24.80;95.90
63435;DHT22;68814;50.872;5.306;2023-10-19T14:57:41;24.80;97.70
63435;DHT22;68814;50.872;5.306;2023-10-19T15:00:09;25.00;97.10
63435;DHT22;68814;50.872;5.306;2023-10-19T15:02:47;25.10;95.90
63435;DHT22;68814;50.872;5.306;2023-10-19T15:05:14;25.30;95.70
63435;DHT22;68814;50.872;5.306;2023-10-19T15:07:46;25.50;95.30
63435;DHT22;68814;50.872;5.306;2023-10-19T15:10:22;25.40;94.70
63435;DHT22;68814;50.872;5.306;2023-10-19T15:12:48;25.20;94.30
63435;DHT22;68814;50.872;5.306;2023-10-19T15:15:14;24.80;94.90
63435;DHT22;68814;50.872;5.306;2023-10-19T15:17:41;24.50;96.00
63435;DHT22;68814;50.872;5.306;2023-10-19T15:20:15;24.20;95.00
63435;DHT22;68814;50.872;5.306;2023-10-19T15:22:42;23.90;96.20
63435;DHT22;68814;50.872;5.306;2023-10-19T15:25:10;23.90;97.50
63435;DHT22;68814;50.872;5.306;2023-10-19T15:27:43;24.00;98.10
63435;DHT22;68814;50.872;5.306;2023-10-19T15:30:10;24.40;97.50
63435;DHT22;68814;50.872;5.306;2023-10-19T15:32:41;24.80;96.50
63435;DHT22;68814;50.872;5.306;2023-10-19T15:35:11;25.40;94.60
63435;DHT22;68814;50.872;5.306;2023-10-19T15:37:40;25.80;93.60
63435;DHT22;68814;50.872;5.306;2023-10-19T15:40:07;26.10;92.00
63435;DHT22;68814;50.872;5.306;2023-10-19T15:42:33;26.30;91.20
63435;DHT22;68814;50.872;5.306;2023-10-19T15:45:01;26.30;90.80
63435;DHT22;68814;50.872;5.306;2023-10-19T15:47:27;26.40;90.90
63435;DHT22;68814;50.872;5.306;2023-10-19T15:49:54;26.00;90.70
63435;DHT22;68814;50.872;5.306;2023-10-19T15:52:31;25.60;91.10